createdAt,value
2023-02-03T00:01:30.890Z,101857.56
2023-02-03T00:03:57.617Z,101858.44
2023-02-03T00:06:24.754Z,101856.81
2023-02-03T00:08:54.453Z,101860.25
2023-02-03T00:11:21.300Z,101852.63
2023-02-03T00:13:47.977Z,101854.34
2023-02-03T00:16:14.758Z,101851.81
2023-02-03T00:18:41.532Z,101846.66
2023-02-03T00:21:08.301Z,101828.88
2023-02-03T00:23:35.038Z,101839.94
2023-02-03T00:26:11.739Z,101836.56
2023-02-03T00:28:38.487Z,101840.91
2023-02-03T00:31:05.508Z,101838.41
2023-02-03T00:33:33.807Z,101824.81
2023-02-03T00:36:06.097Z,101833.31
2023-02-03T00:38:32.867Z,101830.78
2023-02-03T00:40:59.588Z,101824.81
2023-02-03T00:43:26.389Z,101820.53
2023-02-03T00:45:53.148Z,101812.84
2023-02-03T00:48:20.761Z,101800.91
2023-02-03T00:50:47.799Z,101795.91
2023-02-03T00:53:14.626Z,101800.13
2023-02-03T00:55:43.175Z,101796.81
2023-02-03T00:58:09.881Z,101790.84
2023-02-03T01:00:36.601Z,101789.16
2023-02-03T01:03:03.474Z,101779.06
2023-02-03T01:05:30.312Z,101781.53
2023-02-03T01:07:57.029Z,101782.31
2023-02-03T01:10:23.902Z,101781.47
2023-02-03T01:12:50.779Z,101767.81
2023-02-03T01:15:18.721Z,101761.81
2023-02-03T01:17:45.432Z,101757.44
2023-02-03T01:20:13.905Z,101754.81
2023-02-03T01:22:40.659Z,101741.97
2023-02-03T01:25:08.087Z,101745.25
2023-02-03T01:27:34.802Z,101746.19
2023-02-03T01:30:01.561Z,101746.88
2023-02-03T01:32:28.328Z,101746.75
2023-02-03T01:34:55.115Z,101744.09
2023-02-03T01:37:21.889Z,101744.13
2023-02-03T01:39:48.652Z,101747.44
2023-02-03T01:42:15.706Z,101738.91
2023-02-03T01:44:45.067Z,101739.63
2023-02-03T01:47:24.687Z,101729.38
2023-02-03T01:50:13.676Z,101742.91
2023-02-03T01:52:42.486Z,101738.56
2023-02-03T01:55:12.795Z,101741.06
2023-02-03T01:58:00.082Z,101738.41
2023-02-03T02:00:27.215Z,101739.22
2023-02-03T02:02:54.333Z,101741.72
2023-02-03T02:05:31.917Z,101727.13
2023-02-03T02:07:58.885Z,101721.94
2023-02-03T02:10:26.125Z,101706.53
2023-02-03T02:12:55.524Z,101707.25
2023-02-03T02:15:24.569Z,101695.25
2023-02-03T02:18:28.521Z,101694.19
2023-02-03T02:21:33.829Z,101684.63
2023-02-03T02:24:08.408Z,101670.78
2023-02-03T02:27:30.382Z,101672.44
2023-02-03T02:30:27.846Z,101664.63
2023-02-03T02:33:15.874Z,101657.63
2023-02-03T02:36:14.838Z,101660.16
2023-02-03T02:38:44.357Z,101653.25
2023-02-03T02:41:30.378Z,101653.19
2023-02-03T02:43:59.999Z,101651.44
2023-02-03T02:46:39.683Z,101645.41
2023-02-03T02:49:30.358Z,101638.53
2023-02-03T02:51:57.943Z,101631.84
2023-02-03T02:54:24.695Z,101636.88
2023-02-03T02:56:56.704Z,101634.44
2023-02-03T02:59:23.543Z,101636.94
2023-02-03T03:01:51.483Z,101630.16
2023-02-03T03:04:20.807Z,101626.88
2023-02-03T03:06:49.259Z,101624.25
2023-02-03T03:09:19.220Z,101614.06
2023-02-03T03:11:50.457Z,101611.44
2023-02-03T03:14:19.379Z,101600.34
2023-02-03T03:16:50.087Z,101601.16
2023-02-03T03:19:19.417Z,101592.69
2023-02-03T03:21:49.790Z,101581.47
2023-02-03T03:24:18.949Z,101582.22
2023-02-03T03:26:57.907Z,101576.19
2023-02-03T03:29:31.307Z,101586.22
2023-02-03T03:31:58.128Z,101576.75
2023-02-03T03:34:24.957Z,101581.88
2023-02-03T03:37:15.017Z,101567.50
2023-02-03T03:39:54.687Z,101572.50
2023-02-03T03:42:31.981Z,101574.94
2023-02-03T03:45:23.532Z,101582.56
2023-02-03T03:47:52.148Z,101586.00
2023-02-03T03:50:20.367Z,101578.34
2023-02-03T03:52:47.080Z,101577.63
2023-02-03T03:55:14.389Z,101560.59
2023-02-03T03:57:48.040Z,101568.28
2023-02-03T04:00:16.312Z,101567.38
2023-02-03T04:02:43.383Z,101562.25
2023-02-03T04:05:10.685Z,101559.69
2023-02-03T04:07:47.068Z,101542.72
2023-02-03T04:10:33.116Z,101550.31
2023-02-03T04:13:00.048Z,101536.72
2023-02-03T04:15:27.232Z,101551.91
2023-02-03T04:17:54.866Z,101537.56
2023-02-03T04:20:21.573Z,101546.72
2023-02-03T04:22:48.327Z,101526.34
2023-02-03T04:25:15.057Z,101524.53
2023-02-03T04:27:41.861Z,101525.19
2023-02-03T04:30:09.136Z,101504.00
2023-02-03T04:32:35.945Z,101509.59
2023-02-03T04:35:03.866Z,101505.25
2023-02-03T04:37:30.668Z,101500.94
2023-02-03T04:39:58.139Z,101491.34
2023-02-03T04:42:25.077Z,101491.25
2023-02-03T04:44:51.938Z,101495.41
2023-02-03T04:47:19.089Z,101479.22
2023-02-03T04:49:45.904Z,101480.66
2023-02-03T04:52:12.706Z,101469.63
2023-02-03T04:54:39.392Z,101461.03
2023-02-03T04:57:06.327Z,101460.03
2023-02-03T04:59:33.179Z,101448.88
2023-02-03T05:02:03.093Z,101435.19
2023-02-03T05:04:29.943Z,101432.47
2023-02-03T05:06:57.591Z,101418.13
2023-02-03T05:09:25.047Z,101419.69
2023-02-03T05:11:51.908Z,101412.00
2023-02-03T05:14:18.666Z,101411.81
2023-02-03T05:16:46.441Z,101410.00
2023-02-03T05:19:13.344Z,101395.56
2023-02-03T05:21:40.126Z,101404.75
2023-02-03T05:24:08.126Z,101399.59
2023-02-03T05:26:37.972Z,101375.09
2023-02-03T05:29:04.887Z,101382.81
2023-02-03T05:31:33.716Z,101400.56
2023-02-03T05:34:00.601Z,101395.59
2023-02-03T05:36:27.313Z,101373.66
2023-02-03T05:38:54.039Z,101367.03
2023-02-03T05:41:39.734Z,101378.06
2023-02-03T05:44:06.563Z,101357.75
2023-02-03T05:46:33.267Z,101356.03
2023-02-03T05:48:59.965Z,101351.78
2023-02-03T05:51:26.824Z,101356.09
2023-02-03T05:53:53.835Z,101354.34
2023-02-03T05:56:20.621Z,101347.59
2023-02-03T05:58:47.341Z,101351.78
2023-02-03T06:01:14.062Z,101340.72
2023-02-03T06:03:40.924Z,101333.91
2023-02-03T06:06:07.912Z,101329.69
2023-02-03T06:08:34.631Z,101321.03
2023-02-03T06:11:01.477Z,101318.34
2023-02-03T06:13:28.188Z,101304.84
2023-02-03T06:15:55.052Z,101311.56
2023-02-03T06:18:21.911Z,101304.66
2023-02-03T06:20:48.653Z,101299.41
2023-02-03T06:23:17.197Z,101305.22
2023-02-03T06:25:44.091Z,101293.13
2023-02-03T06:28:10.960Z,101285.31
2023-02-03T06:30:37.812Z,101270.69
2023-02-03T06:33:04.626Z,101271.84
2023-02-03T06:35:32.565Z,101271.63
2023-02-03T06:37:59.315Z,101272.19
2023-02-03T06:40:26.539Z,101254.91
2023-02-03T06:42:53.495Z,101253.72
2023-02-03T06:45:20.208Z,101250.81
2023-02-03T06:47:46.914Z,101238.75
2023-02-03T06:50:14.871Z,101221.56
2023-02-03T06:52:41.675Z,101220.34
2023-02-03T06:55:08.564Z,101214.22
2023-02-03T06:57:35.380Z,101211.28
2023-02-03T07:00:02.474Z,101200.81
2023-02-03T07:02:29.234Z,101193.66
2023-02-03T07:04:56.038Z,101182.44
2023-02-03T07:07:22.732Z,101181.38
2023-02-03T07:09:49.452Z,101176.16
2023-02-03T07:12:16.211Z,101170.66
2023-02-03T07:14:42.984Z,101168.69
2023-02-03T07:17:09.708Z,101162.25
2023-02-03T07:19:36.415Z,101157.69
2023-02-03T07:22:03.156Z,101148.75
2023-02-03T07:24:29.868Z,101134.97
2023-02-03T07:26:56.591Z,101128.78
2023-02-03T07:29:23.395Z,101132.59
2023-02-03T07:31:50.250Z,101135.66
2023-02-03T07:34:17.051Z,101121.19
2023-02-03T07:36:43.789Z,101114.81
2023-02-03T07:39:10.539Z,101112.50
2023-02-03T07:41:37.337Z,101091.91
2023-02-03T07:44:04.297Z,101098.97
2023-02-03T07:46:31.125Z,101090.09
2023-02-03T07:48:57.931Z,101093.75
2023-02-03T07:51:24.749Z,101079.94
2023-02-03T07:53:51.527Z,101086.47
2023-02-03T07:56:18.272Z,101068.34
2023-02-03T07:58:44.980Z,101059.22
2023-02-03T08:01:16.360Z,101057.19
2023-02-03T08:03:43.185Z,101060.81
2023-02-03T08:06:10.236Z,101050.22
2023-02-03T08:08:37.024Z,101046.19
2023-02-03T08:11:03.859Z,101019.66
2023-02-03T08:13:30.590Z,101026.63
2023-02-03T08:15:57.379Z,101018.66
2023-02-03T08:18:24.201Z,101002.50
2023-02-03T08:20:51.062Z,101006.34
2023-02-03T08:23:17.802Z,101000.28
2023-02-03T08:25:44.569Z,100998.31
2023-02-03T08:28:11.376Z,100989.66
2023-02-03T08:30:38.568Z,100992.59
2023-02-03T08:33:11.094Z,100983.69
2023-02-03T08:35:38.244Z,100981.78
2023-02-03T08:38:04.985Z,100979.78
2023-02-03T08:40:31.747Z,100970.88
2023-02-03T08:42:58.580Z,100962.97
2023-02-03T08:45:25.429Z,100951.81
2023-02-03T08:47:52.691Z,100959.06
2023-02-03T08:50:19.896Z,100950.34
2023-02-03T08:52:46.707Z,100951.00
2023-02-03T08:55:13.475Z,100925.41
2023-02-03T08:57:42.168Z,100905.50
2023-02-03T09:00:09.915Z,100916.41
2023-02-03T09:02:36.759Z,100916.84
2023-02-03T09:05:03.707Z,100903.06
2023-02-03T09:07:30.619Z,100888.94
2023-02-03T09:09:57.370Z,100881.06
2023-02-03T09:12:24.186Z,100875.56
2023-02-03T09:14:51.119Z,100874.59
2023-02-03T09:17:17.857Z,100881.16
2023-02-03T09:19:44.661Z,100866.34
2023-02-03T09:22:11.463Z,100856.81
2023-02-03T09:24:38.396Z,100853.22
2023-02-03T09:27:05.184Z,100847.22
2023-02-03T09:29:31.936Z,100832.53
2023-02-03T09:32:00.254Z,100823.13
2023-02-03T09:34:27.083Z,100829.63
2023-02-03T09:36:53.821Z,100808.94
2023-02-03T09:39:20.755Z,100800.91
2023-02-03T09:42:20.477Z,100803.09
2023-02-03T09:44:58.574Z,100785.81
2023-02-03T09:47:27.471Z,100781.31
2023-02-03T09:49:57.265Z,100765.03
2023-02-03T09:52:44.440Z,100759.78
2023-02-03T09:55:39.695Z,100758.88
2023-02-03T09:58:16.365Z,100740.00
2023-02-03T10:00:44.773Z,100735.88
2023-02-03T10:03:18.298Z,100731.06
2023-02-03T10:05:53.417Z,100725.91
2023-02-03T10:09:13.782Z,100714.91
2023-02-03T10:12:17.883Z,100710.56
2023-02-03T10:15:07.468Z,100700.25
2023-02-03T10:17:41.785Z,100692.38
2023-02-03T10:20:14.889Z,100680.56
2023-02-03T10:22:51.109Z,100674.50
2023-02-03T10:25:25.207Z,100665.34
2023-02-03T10:27:56.166Z,100651.59
2023-02-03T10:30:32.616Z,100646.06
2023-02-03T10:33:12.971Z,100635.00
2023-02-03T10:35:51.278Z,100628.25
2023-02-03T10:38:56.719Z,100622.38
2023-02-03T10:41:23.508Z,100601.41
2023-02-03T10:43:51.877Z,100607.22
2023-02-03T10:46:27.898Z,100592.91
2023-02-03T10:48:55.343Z,100581.88
2023-02-03T10:51:26.375Z,100577.41
2023-02-03T10:53:53.720Z,100561.09
2023-02-03T10:56:38.897Z,100554.34
2023-02-03T10:59:06.676Z,100554.19
2023-02-03T11:01:42.477Z,100536.09
2023-02-03T11:04:25.251Z,100517.66
2023-02-03T11:07:02.893Z,100510.38
2023-02-03T11:09:37.035Z,100503.56
2023-02-03T11:12:08.084Z,100489.44
2023-02-03T11:14:39.110Z,100464.59
2023-02-03T11:17:07.736Z,100462.41
2023-02-03T11:19:34.495Z,100466.97
2023-02-03T11:22:01.220Z,100455.56
2023-02-03T11:24:32.004Z,100445.94
2023-02-03T11:27:07.121Z,100448.44
2023-02-03T11:29:37.831Z,100435.72
2023-02-03T11:32:07.185Z,100440.88
2023-02-03T11:34:42.957Z,100413.59
2023-02-03T11:37:37.791Z,100417.19
2023-02-03T11:40:07.710Z,100414.59
2023-02-03T11:42:36.456Z,100405.66
2023-02-03T11:45:25.920Z,100396.16
2023-02-03T11:48:03.246Z,100389.44
2023-02-03T11:50:50.948Z,100379.31
2023-02-03T11:53:42.319Z,100384.56
2023-02-03T11:56:28.179Z,100377.84
2023-02-03T11:59:06.729Z,100365.84
2023-02-03T12:01:51.518Z,100365.22
2023-02-03T12:04:35.846Z,100356.00
2023-02-03T12:07:11.814Z,100356.19
2023-02-03T12:09:57.405Z,100358.59
2023-02-03T12:12:43.624Z,100345.97
2023-02-03T12:15:28.530Z,100346.63
2023-02-03T12:18:07.360Z,100355.19
2023-02-03T12:21:11.287Z,100339.88
2023-02-03T12:23:50.097Z,100345.03
2023-02-03T12:26:26.654Z,100345.16
2023-02-03T12:29:04.660Z,100341.00
2023-02-03T12:32:14.177Z,100340.19
2023-02-03T12:34:51.128Z,100348.63
2023-02-03T12:37:22.602Z,100346.16
2023-02-03T12:40:03.711Z,100337.69
2023-02-03T12:42:59.477Z,100338.31
2023-02-03T12:45:31.056Z,100328.22
2023-02-03T12:48:10.635Z,100337.59
2023-02-03T12:50:46.154Z,100331.63
2023-02-03T12:53:20.526Z,100333.25
2023-02-03T12:56:10.994Z,100341.84
2023-02-03T12:58:44.164Z,100321.47
2023-02-03T13:01:20.898Z,100324.88
2023-02-03T13:03:56.088Z,100302.78
2023-02-03T13:06:30.987Z,100325.41
2023-02-03T13:09:22.460Z,100321.09
2023-02-03T13:11:54.616Z,100306.81
2023-02-03T13:14:36.237Z,100304.97
2023-02-03T13:17:18.650Z,100315.19
2023-02-03T13:19:48.425Z,100302.16
2023-02-03T13:22:15.815Z,100303.09
2023-02-03T13:24:48.184Z,100285.53
2023-02-03T13:27:24.520Z,100295.47
2023-02-03T13:30:14.201Z,100290.38
2023-02-03T13:33:02.567Z,100296.81
2023-02-03T13:35:35.226Z,100302.72
2023-02-03T13:38:08.140Z,100279.25
2023-02-03T13:40:47.658Z,100275.66
2023-02-03T13:43:39.304Z,100277.09
2023-02-03T13:46:09.537Z,100270.56
2023-02-03T13:48:36.750Z,100271.69
2023-02-03T13:51:43.572Z,100275.44
2023-02-03T13:54:21.188Z,100246.69
2023-02-03T13:57:02.579Z,100276.34
2023-02-03T13:59:43.514Z,100271.81
2023-02-03T14:02:24.329Z,100278.94
2023-02-03T14:04:54.073Z,100278.13
2023-02-03T14:07:24.989Z,100269.09
2023-02-03T14:10:25.077Z,100265.91
2023-02-03T14:12:51.785Z,100281.00
2023-02-03T14:15:28.436Z,100282.00
2023-02-03T14:18:14.341Z,100274.28
2023-02-03T14:20:42.727Z,100269.31
2023-02-03T14:23:13.972Z,100242.84
2023-02-03T14:25:57.813Z,100255.88
2023-02-03T14:28:31.447Z,100274.47
2023-02-03T14:31:10.735Z,100267.97
2023-02-03T14:34:05.450Z,100277.03
2023-02-03T14:36:54.987Z,100276.41
2023-02-03T14:39:32.699Z,100281.56
2023-02-03T14:42:02.369Z,100286.84
2023-02-03T14:44:41.646Z,100297.28
2023-02-03T14:47:11.780Z,100286.22
2023-02-03T14:49:52.361Z,100289.81
2023-02-03T14:52:40.983Z,100295.78
2023-02-03T14:55:45.323Z,100301.81
2023-02-03T14:58:19.939Z,100292.88
2023-02-03T15:00:46.717Z,100299.50
2023-02-03T15:03:15.358Z,100311.50
2023-02-03T15:05:47.019Z,100301.00
2023-02-03T15:08:33.444Z,100317.56
2023-02-03T15:11:01.637Z,100333.88
2023-02-03T15:13:31.794Z,100332.59
2023-02-03T15:16:05.148Z,100325.63
2023-02-03T15:18:36.339Z,100349.00
2023-02-03T15:21:03.835Z,100349.94
2023-02-03T15:23:43.307Z,100355.00
2023-02-03T15:26:14.760Z,100357.75
2023-02-03T15:28:41.599Z,100361.09
2023-02-03T15:31:28.131Z,100373.50
2023-02-03T15:33:55.899Z,100372.03
2023-02-03T15:36:25.262Z,100368.06
2023-02-03T15:38:56.629Z,100374.81
2023-02-03T15:41:24.396Z,100382.19
2023-02-03T15:43:54.845Z,100365.31
2023-02-03T15:46:28.060Z,100378.84
2023-02-03T15:49:02.439Z,100384.94
2023-02-03T15:51:33.237Z,100385.88
2023-02-03T15:54:11.521Z,100385.03
2023-02-03T15:56:43.519Z,100372.59
2023-02-03T15:59:42.632Z,100394.44
2023-02-03T16:02:27.885Z,100407.34
2023-02-03T16:04:54.918Z,100409.28
2023-02-03T16:07:22.301Z,100410.00
2023-02-03T16:09:52.639Z,100397.56
2023-02-03T16:12:29.578Z,100398.56
2023-02-03T16:14:57.322Z,100405.25
2023-02-03T16:17:31.480Z,100418.56
2023-02-03T16:20:29.384Z,100429.81
2023-02-03T16:23:22.240Z,100437.50
2023-02-03T16:26:02.362Z,100437.03
2023-02-03T16:28:47.479Z,100430.00
2023-02-03T16:31:37.249Z,100457.38
2023-02-03T16:34:36.109Z,100446.88
2023-02-03T16:37:29.936Z,100457.75
2023-02-03T16:40:15.155Z,100485.59
2023-02-03T16:43:00.804Z,100498.56
2023-02-03T16:45:46.106Z,100504.75
2023-02-03T16:48:31.446Z,100506.69
2023-02-03T16:51:02.624Z,100519.22
2023-02-03T16:53:30.843Z,100512.50
2023-02-03T16:56:02.290Z,100505.94
2023-02-03T16:58:29.101Z,100509.91
2023-02-03T17:00:57.177Z,100515.25
2023-02-03T17:03:25.680Z,100495.06
2023-02-03T17:05:53.109Z,100509.34
2023-02-03T17:08:21.620Z,100524.00
2023-02-03T17:10:48.504Z,100535.72
2023-02-03T17:13:15.819Z,100532.50
2023-02-03T17:15:47.224Z,100526.75
2023-02-03T17:18:15.129Z,100549.53
2023-02-03T17:20:42.774Z,100558.13
2023-02-03T17:23:09.680Z,100553.19
2023-02-03T17:25:36.733Z,100569.44
2023-02-03T17:28:04.545Z,100571.84
2023-02-03T17:30:35.440Z,100568.84
2023-02-03T17:33:02.929Z,100570.72
2023-02-03T17:35:30.278Z,100568.13
2023-02-03T17:37:57.441Z,100595.06
2023-02-03T17:54:09.255Z,100597.81
2023-02-03T17:56:36.403Z,100584.53
2023-02-03T17:59:04.207Z,100600.56
2023-02-03T18:01:31.849Z,100588.28
2023-02-03T18:04:00.285Z,100622.16
2023-02-03T18:06:28.379Z,100631.53
2023-02-03T18:09:01.200Z,100623.16
2023-02-03T18:11:28.974Z,100637.03
2023-02-03T18:13:55.889Z,100631.81
2023-02-03T18:16:26.187Z,100639.44
2023-02-03T18:18:53.212Z,100638.72
2023-02-03T18:21:21.172Z,100644.06
2023-02-03T18:23:49.540Z,100653.34
2023-02-03T18:26:17.129Z,100665.34
2023-02-03T18:28:49.310Z,100641.22
2023-02-03T18:31:17.796Z,100642.63
2023-02-03T18:33:50.523Z,100620.53
2023-02-03T18:36:17.402Z,100638.34
2023-02-03T18:38:45.901Z,100637.25
2023-02-03T18:41:15.526Z,100646.81
2023-02-03T18:43:42.675Z,100678.25
2023-02-03T18:46:20.658Z,100695.38
2023-02-03T18:48:47.632Z,100678.94
2023-02-03T18:51:16.774Z,100701.56
2023-02-03T18:53:45.246Z,100743.41
2023-02-03T18:56:17.115Z,100719.47
2023-02-03T18:58:44.067Z,100729.84
2023-02-03T19:01:11.267Z,100729.34
2023-02-03T19:03:38.854Z,100767.06
2023-02-03T19:06:12.086Z,100729.09
2023-02-03T19:08:38.959Z,100757.88
2023-02-03T19:11:05.940Z,100773.34
2023-02-03T19:13:32.974Z,100790.16
2023-02-03T19:16:02.619Z,100787.81
2023-02-03T19:18:30.742Z,100801.56
2023-02-03T19:20:57.633Z,100811.81
2023-02-03T19:23:24.612Z,100809.38
2023-02-03T19:25:52.377Z,100830.28
2023-02-03T19:28:29.990Z,100805.88
2023-02-03T19:31:16.374Z,100833.16
2023-02-03T19:33:43.577Z,100819.19
2023-02-03T19:36:11.284Z,100835.91
2023-02-03T19:38:43.181Z,100882.06
2023-02-03T19:41:11.910Z,100854.72
2023-02-03T19:43:40.187Z,100855.72
2023-02-03T19:46:08.081Z,100870.88
2023-02-03T19:48:35.118Z,100870.97
2023-02-03T19:51:02.033Z,100899.47
2023-02-03T19:53:29.035Z,100895.19
2023-02-03T19:55:56.039Z,100887.19
2023-02-03T19:58:24.232Z,100873.94
2023-02-03T20:00:56.866Z,100934.25
2023-02-03T20:03:35.426Z,100929.34
2023-02-03T20:06:16.670Z,100958.56
2023-02-03T20:08:47.350Z,100917.09
2023-02-03T20:11:16.677Z,100971.84
2023-02-03T20:13:43.738Z,100957.66
2023-02-03T20:16:10.744Z,100964.13
2023-02-03T20:18:56.702Z,101009.91
2023-02-03T20:21:26.585Z,100991.88
2023-02-03T20:24:05.656Z,101021.03
2023-02-03T20:26:41.484Z,101020.19
2023-02-03T20:29:08.673Z,101030.66
2023-02-03T20:31:46.850Z,101067.38
2023-02-03T20:34:14.110Z,101056.47
2023-02-03T20:36:41.042Z,101064.88
2023-02-03T20:39:19.852Z,101070.97
2023-02-03T20:41:46.684Z,101063.94
2023-02-03T20:44:21.990Z,101120.34
2023-02-03T20:46:56.102Z,101097.47
2023-02-03T20:49:28.892Z,101161.06
2023-02-03T20:52:01.330Z,101185.19
2023-02-03T20:54:43.772Z,101144.72
2023-02-03T21:00:23.168Z,101173.94
2023-02-03T21:03:26.833Z,101136.94
2023-02-03T21:06:29.828Z,101175.72
2023-02-03T21:09:03.000Z,101220.41
2023-02-03T21:11:41.549Z,101215.66
2023-02-03T21:14:57.462Z,101198.47
2023-02-03T21:17:30.582Z,101234.75
2023-02-03T21:20:15.922Z,101240.91
2023-02-03T21:22:57.636Z,101261.16
2023-02-03T21:25:33.276Z,101254.69
2023-02-03T21:28:12.044Z,101246.72
2023-02-03T21:30:39.250Z,101232.84
2023-02-03T21:33:34.153Z,101257.59
2023-02-03T21:36:08.703Z,101270.22
2023-02-03T21:38:35.606Z,101249.47
2023-02-03T21:41:02.775Z,101273.38
2023-02-03T21:43:30.314Z,101306.34
2023-02-03T21:45:57.628Z,101293.00
2023-02-03T21:48:29.282Z,101340.88
2023-02-03T21:51:03.339Z,101315.06
2023-02-03T21:53:36.794Z,101322.88
2023-02-03T21:56:30.515Z,101360.69
2023-02-03T21:58:59.066Z,101328.50
2023-02-03T22:01:33.806Z,101323.56
2023-02-03T22:04:04.541Z,101397.66
2023-02-03T22:06:51.591Z,101399.44
2023-02-03T22:09:25.683Z,101395.94
2023-02-03T22:11:58.364Z,101386.94
2023-02-03T22:14:34.800Z,101436.88
2023-02-03T22:17:01.590Z,101415.25
2023-02-03T22:19:28.472Z,101429.44
2023-02-03T22:21:55.278Z,101446.03
2023-02-03T22:24:22.060Z,101436.19
2023-02-03T22:26:48.866Z,101459.16
2023-02-03T22:29:15.660Z,101475.41
2023-02-03T22:31:42.908Z,101483.00
2023-02-03T22:34:09.811Z,101486.50
2023-02-03T22:36:36.663Z,101490.13
2023-02-03T22:39:03.455Z,101488.50
2023-02-03T22:41:30.297Z,101502.91
2023-02-03T22:43:57.101Z,101501.47
2023-02-03T22:46:39.260Z,101517.59
2023-02-03T22:49:15.527Z,101490.63
2023-02-03T22:51:51.449Z,101532.91
2023-02-03T22:54:23.953Z,101501.41
2023-02-03T22:56:50.851Z,101510.16
2023-02-03T22:59:25.180Z,101531.28
2023-02-03T23:02:32.416Z,101538.41
2023-02-03T23:05:15.479Z,101554.41
2023-02-03T23:07:50.822Z,101583.84
2023-02-03T23:10:43.983Z,101583.34
2023-02-03T23:13:33.881Z,101564.53
2023-02-03T23:16:27.771Z,101598.28
2023-02-03T23:19:07.090Z,101635.59
2023-02-03T23:21:40.251Z,101627.25
2023-02-03T23:24:19.232Z,101637.41
2023-02-03T23:26:53.891Z,101616.84
2023-02-03T23:29:37.563Z,101616.94
2023-02-03T23:32:24.633Z,101670.84
2023-02-03T23:38:22.352Z,101632.31
2023-02-03T23:40:56.384Z,101640.88
2023-02-03T23:43:39.236Z,101686.31
2023-02-03T23:46:22.238Z,101675.03
2023-02-03T23:51:55.183Z,101680.09
2023-02-03T23:54:40.008Z,101712.06
2023-02-03T23:57:16.709Z,101660.81
2023-02-03T23:59:59.229Z,101686.41
